logo
Search for airport 
image banner adimage banner adimage banner ad
image banner ad

OPDB - Dalbandin

Located in Dalbandin, Pakistan

ICAO - OPDB, IATA - DBA

Data provided by Airmate  

General information

Coordinates: N28°52'30" E64°24'17"
Elevation is 2777 feet MSL.
 
View others Airports in Balochistan

Operational data

Special qualification required
Current time UTC:
Current local time:
Weather at : - ( 0 km )
METAR: TJBQ 242050Z 00000KT 10SM CLR 27/26 A2998 RMK LTG DSNT NE-W
View NOTAMs / SUP AIP / TFR affecting this airport [VIEW]
Communications frequencies: [VIEW]

Runways:

RWY identifierQFULength (ft)Width (ft)SurfaceLDA (ft)
13127°6640102UNK
31307°6640102UNK

Airport contact information

Address: Dalbandin Pakistan

Satellite view of OPDB